Time;durP1;ratioP1;P1;durP2;ratioP2;P2;SDS_P1;SDS_P2;PMS_P1;PMS_P2;Temp;Humidity;BMP_temperature;BMP_pressure;BME280_temperature;BME280_humidity;BME280_pressure;Samples;Min_cycle;Max_cycle;Signal;HPM_P1;HPM_P2
2021/05/04 00:00:08;;;;;;;10.05;4.53;;;281.70;1894.40;;;;;;5032582;28;20060;-71
2021/05/04 00:02:34;;;;;;;6.00;4.55;;;256.90;1868.80;;;;;;5037189;28;20462;-71
2021/05/04 00:04:59;;;;;;;9.20;4.43;;;256.80;1868.80;;;;;;5036477;28;20100;-71
2021/05/04 00:07:25;;;;;;;6.00;4.63;;;256.90;1868.80;;;;;;5042201;28;20044;-72
2021/05/04 00:09:51;;;;;;;5.30;4.28;;;256.90;1868.80;;;;;;5041916;28;20098;-71
2021/05/04 00:12:17;;;;;;;6.85;4.65;;;281.60;1920.00;;;;;;5036946;28;20029;-71
2021/05/04 00:14:42;;;;;;;6.80;4.35;;;281.60;1894.40;;;;;;5042302;28;20018;-72
2021/05/04 00:17:08;;;;;;;6.35;4.60;;;281.60;1920.00;;;;;;5043106;28;20040;-71
2021/05/04 00:19:34;;;;;;;6.35;4.57;;;256.90;1894.40;;;;;;5043137;28;20021;-71
2021/05/04 00:22:00;;;;;;;5.63;4.53;;;256.80;1894.40;;;;;;5047269;28;20032;-71
2021/05/04 00:24:26;;;;;;;6.25;4.63;;;256.90;1894.40;;;;;;5041872;28;20030;-71
2021/05/04 00:26:51;;;;;;;5.53;4.25;;;256.90;1894.40;;;;;;5038565;28;20032;-71
2021/05/04 00:29:17;;;;;;;5.15;4.47;;;281.60;1894.40;;;;;;5041963;28;21647;-71
2021/05/04 00:31:43;;;;;;;7.63;4.80;;;256.90;1894.40;;;;;;5042252;28;20029;-72
2021/05/04 00:34:08;;;;;;;5.75;4.50;;;256.90;1894.40;;;;;;5037279;28;20576;-71
2021/05/04 00:36:34;;;;;;;6.30;4.65;;;256.80;1920.00;;;;;;5038683;28;20032;-71
2021/05/04 00:39:00;;;;;;;7.18;4.60;;;256.80;1920.00;;;;;;5037168;28;20025;-71
2021/05/04 00:41:26;;;;;;;7.38;4.50;;;256.80;1920.00;;;;;;5036687;28;20467;-72
2021/05/04 00:43:52;;;;;;;5.90;4.53;;;256.80;1920.00;;;;;;5042866;28;20026;-71
2021/05/04 00:46:18;;;;;;;6.10;4.57;;;256.80;1920.00;;;;;;5045914;28;20627;-71
2021/05/04 00:48:44;;;;;;;5.28;4.25;;;256.70;1920.00;;;;;;5043207;28;20029;-71
2021/05/04 00:51:10;;;;;;;6.50;4.70;;;256.70;1945.60;;;;;;5038972;28;20471;-71
2021/05/04 00:53:36;;;;;;;6.78;4.72;;;256.70;1945.60;;;;;;5037171;28;20041;-71
2021/05/04 00:56:03;;;;;;;6.95;4.55;;;256.60;1945.60;;;;;;5042439;28;20021;-72
2021/05/04 00:58:32;;;;;;;6.20;4.85;;;256.60;1971.20;;;;;;5040411;28;20038;-71
2021/05/04 01:00:58;;;;;;;5.90;4.90;;;256.50;1945.60;;;;;;5045049;28;20495;-71
2021/05/04 01:03:24;;;;;;;6.97;5.30;;;256.50;1971.20;;;;;;5033314;28;20040;-70
2021/05/04 01:05:49;;;;;;;6.43;4.93;;;256.50;1971.20;;;;;;5043301;28;20022;-71
2021/05/04 01:08:15;;;;;;;8.30;5.25;;;256.50;2252.80;;;;;;5041939;28;20060;-71
2021/05/04 01:10:41;;;;;;;6.60;5.28;;;256.40;1971.20;;;;;;5044444;28;20021;-71
2021/05/04 01:13:07;;;;;;;7.03;5.15;;;256.40;2252.80;;;;;;5044331;28;20030;-71
2021/05/04 01:15:33;;;;;;;7.55;4.65;;;256.20;1996.80;;;;;;5037080;28;20017;-71
2021/05/04 01:17:59;;;;;;;6.82;4.90;;;256.40;1996.80;;;;;;5038784;28;20040;-70
2021/05/04 01:20:25;;;;;;;7.55;5.10;;;256.20;1996.80;;;;;;5041167;28;20394;-71
2021/05/04 01:22:52;;;;;;;6.72;5.28;;;256.20;1996.80;;;;;;5045731;28;20378;-71
2021/05/04 01:25:19;;;;;;;6.90;5.70;;;256.30;1996.80;;;;;;5041617;28;20052;-71
2021/05/04 01:27:45;;;;;;;11.18;5.38;;;256.30;1996.80;;;;;;5045655;28;20672;-72
2021/05/04 01:30:11;;;;;;;8.05;5.10;;;256.60;1996.80;;;;;;5040312;28;20025;-71
2021/05/04 01:32:37;;;;;;;8.07;5.50;;;256.30;2022.40;;;;;;5039962;28;21695;-71
2021/05/04 01:35:08;;;;;;;7.15;6.05;;;256.30;2022.40;;;;;;5040889;28;20020;-71
2021/05/04 01:37:33;;;;;;;9.07;5.65;;;256.10;2048.00;;;;;;5041794;28;20037;-71
2021/05/04 01:40:01;;;;;;;6.20;5.00;;;;;;;;;;5030129;28;20032;-71
2021/05/04 01:42:26;;;;;;;7.63;5.47;;;231.30;2099.20;;;;;;5037267;28;20543;-71
2021/05/04 01:44:52;;;;;;;7.72;5.32;;;;;;;;;;5035206;28;20104;-71
2021/05/04 01:47:18;;;;;;;7.07;5.47;;;231.10;2099.20;;;;;;5038806;28;20037;-71
2021/05/04 01:49:44;;;;;;;8.18;5.30;;;230.80;2099.20;;;;;;5037327;28;20411;-70
2021/05/04 01:52:11;;;;;;;7.38;5.78;;;230.80;2073.60;;;;;;5035613;28;20050;-71
2021/05/04 01:54:38;;;;;;;6.68;5.32;;;231.00;2073.60;;;;;;5040534;28;20032;-70
2021/05/04 01:57:04;;;;;;;7.70;5.35;;;230.90;2099.20;;;;;;5035239;28;20171;-71
2021/05/04 01:59:30;;;;;;;8.52;5.70;;;230.90;2099.20;;;;;;5041531;28;20021;-71
2021/05/04 02:01:57;;;;;;;6.70;5.13;;;230.90;2099.20;;;;;;5045947;28;20025;-70
2021/05/04 02:04:24;;;;;;;7.40;5.35;;;230.80;2099.20;;;;;;5034230;28;20028;-71
2021/05/04 02:06:50;;;;;;;6.43;5.05;;;230.80;2099.20;;;;;;5036652;28;20033;-70
2021/05/04 02:09:16;;;;;;;6.50;5.13;;;230.80;2099.20;;;;;;5039823;28;20048;-71
2021/05/04 02:11:42;;;;;;;6.60;5.20;;;230.90;2073.60;;;;;;5040668;28;20535;-71
2021/05/04 02:14:09;;;;;;;9.68;6.05;;;231.00;2099.20;;;;;;5035092;28;20406;-72
2021/05/04 02:16:35;;;;;;;8.82;5.97;;;231.20;2073.60;;;;;;5041245;28;20471;-71
2021/05/04 02:19:02;;;;;;;9.05;5.80;;;231.10;2099.20;;;;;;5031883;28;20462;-71
2021/05/04 02:21:28;;;;;;;6.25;5.20;;;231.10;2073.60;;;;;;5040649;28;20029;-71
2021/05/04 02:23:54;;;;;;;8.18;6.05;;;231.10;2099.20;;;;;;5043242;28;20021;-71
2021/05/04 02:26:20;;;;;;;8.60;6.75;;;231.00;2099.20;;;;;;5034840;28;20026;-70
2021/05/04 02:28:46;;;;;;;8.77;6.35;;;231.00;2099.20;;;;;;5038612;28;20024;-71
2021/05/04 02:31:13;;;;;;;8.95;6.50;;;231.10;2099.20;;;;;;5039651;28;20063;-70
2021/05/04 02:33:41;;;;;;;7.00;6.15;;;230.90;2124.80;;;;;;5034609;28;20033;-71
2021/05/04 02:36:08;;;;;;;7.45;6.22;;;230.90;2099.20;;;;;;5044327;28;20021;-71
2021/05/04 02:38:34;;;;;;;7.32;5.82;;;230.90;2099.20;;;;;;5043665;28;20043;-71
2021/05/04 02:41:01;;;;;;;7.95;5.68;;;230.80;2124.80;;;;;;5036748;28;20025;-71
2021/05/04 02:43:28;;;;;;;8.35;6.05;;;230.80;2099.20;;;;;;5034944;28;20030;-70
2021/05/04 02:45:54;;;;;;;10.48;6.10;;;230.90;2099.20;;;;;;5040729;28;20024;-71
2021/05/04 02:48:19;;;;;;;7.45;6.20;;;231.00;2099.20;;;;;;5039927;28;20406;-71
2021/05/04 02:50:46;;;;;;;7.63;6.15;;;231.10;2099.20;;;;;;5036277;28;20572;-71
2021/05/04 02:53:12;;;;;;;7.30;6.00;;;231.20;2099.20;;;;;;5034003;28;20053;-71
2021/05/04 02:55:38;;;;;;;8.88;5.90;;;231.10;2099.20;;;;;;5038804;28;20479;-72
2021/05/04 02:58:04;;;;;;;7.15;6.13;;;231.10;2124.80;;;;;;5037723;28;20045;-70
2021/05/04 03:00:30;;;;;;;8.20;5.78;;;231.20;2099.20;;;;;;5040776;28;20490;-71
2021/05/04 03:02:56;;;;;;;7.40;6.20;;;231.10;2099.20;;;;;;5033657;28;20533;-71
2021/05/04 03:05:22;;;;;;;7.05;5.88;;;231.00;2099.20;;;;;;5039682;28;20030;-71
2021/05/04 03:07:47;;;;;;;10.02;6.47;;;231.00;2099.20;;;;;;5041402;28;20075;-70
2021/05/04 03:10:13;;;;;;;8.60;6.30;;;231.00;2099.20;;;;;;5039104;28;20021;-72
2021/05/04 03:12:39;;;;;;;8.38;6.00;;;230.90;2150.40;;;;;;5035584;28;20036;-71
2021/05/04 03:15:06;;;;;;;9.27;6.10;;;230.70;2176.00;;;;;;5035765;28;20028;-71
2021/05/04 03:17:32;;;;;;;11.65;6.80;;;230.80;2150.40;;;;;;5034583;28;20156;-71
2021/05/04 03:19:58;;;;;;;9.20;6.28;;;230.80;2150.40;;;;;;5038402;28;20024;-70
2021/05/04 03:22:23;;;;;;;9.68;6.75;;;230.90;2150.40;;;;;;5036814;28;20036;-71
2021/05/04 03:24:49;;;;;;;9.25;6.75;;;230.90;2150.40;;;;;;5037030;28;20084;-71
2021/05/04 03:27:16;;;;;;;10.65;7.53;;;231.00;2124.80;;;;;;5041222;28;20541;-71
2021/05/04 03:29:42;;;;;;;11.27;7.47;;;231.10;2124.80;;;;;;5023192;28;20394;-71
2021/05/04 03:32:08;;;;;;;10.50;7.45;;;231.10;2124.80;;;;;;5033769;28;20045;-71
2021/05/04 03:34:33;;;;;;;9.80;7.65;;;230.80;2124.80;;;;;;5029768;28;20168;-70
2021/05/04 03:36:59;;;;;;;11.13;7.53;;;231.20;2124.80;;;;;;5042633;28;20499;-70
2021/05/04 03:39:25;;;;;;;16.50;7.65;;;231.30;2124.80;;;;;;5040410;28;20137;-71
2021/05/04 03:41:51;;;;;;;13.52;8.15;;;256.00;2124.80;;;;;;5038597;28;20483;-71
2021/05/04 03:44:17;;;;;;;10.48;7.63;;;;;;;;;;5040861;28;20128;-71
2021/05/04 03:46:43;;;;;;;13.32;7.70;;;256.20;2099.20;;;;;;5028614;28;20025;-71
2021/05/04 03:49:10;;;;;;;11.98;7.38;;;256.10;2099.20;;;;;;5035963;28;20036;-72
2021/05/04 03:51:37;;;;;;;10.60;8.27;;;256.10;2099.20;;;;;;5040120;28;20047;-70
2021/05/04 03:54:03;;;;;;;12.95;7.72;;;256.10;2099.20;;;;;;5040258;28;20109;-71
2021/05/04 03:56:29;;;;;;;9.07;7.47;;;256.20;2099.20;;;;;;5035669;28;20573;-71
2021/05/04 03:58:55;;;;;;;10.48;7.85;;;256.30;2099.20;;;;;;5036834;28;20144;-71
2021/05/04 04:01:21;;;;;;;9.55;7.32;;;256.10;2099.20;;;;;;5040685;28;20048;-71
2021/05/04 04:03:50;;;;;;;10.40;8.43;;;256.10;2099.20;;;;;;5038926;28;20783;-72
2021/05/04 04:06:17;;;;;;;12.02;7.93;;;256.10;2099.20;;;;;;5038512;28;20100;-71
2021/05/04 04:08:43;;;;;;;9.52;7.60;;;256.20;2099.20;;;;;;5044716;28;20021;-71
2021/05/04 04:11:09;;;;;;;9.93;7.80;;;256.20;2099.20;;;;;;5036749;28;20528;-71
2021/05/04 04:13:34;;;;;;;14.90;8.23;;;256.30;2099.20;;;;;;5037184;28;20032;-70
2021/05/04 04:16:00;;;;;;;9.85;7.57;;;256.40;2099.20;;;;;;5038252;28;20379;-71
2021/05/04 04:18:26;;;;;;;21.92;9.02;;;256.50;2099.20;;;;;;5031386;28;20462;-70
2021/05/04 04:20:52;;;;;;;15.70;8.32;;;256.50;2099.20;;;;;;5040191;28;20029;-71
2021/05/04 04:23:19;;;;;;;15.07;7.78;;;256.60;2099.20;;;;;;5037232;28;20061;-71
2021/05/04 04:25:44;;;;;;;9.60;7.18;;;256.70;2099.20;;;;;;5033700;28;20025;-71
2021/05/04 04:28:10;;;;;;;12.02;7.10;;;256.70;2099.20;;;;;;5037449;28;20036;-71
2021/05/04 04:30:36;;;;;;;9.23;7.10;;;256.80;2099.20;;;;;;5040940;28;20026;-71
2021/05/04 04:33:03;;;;;;;10.23;6.90;;;256.90;2073.60;;;;;;5040955;28;20029;-72
2021/05/04 04:35:29;;;;;;;10.73;8.02;;;256.90;2073.60;;;;;;5040104;28;20079;-71
2021/05/04 04:37:55;;;;;;;10.05;7.43;;;281.60;2099.20;;;;;;5033343;28;20045;-71
2021/05/04 04:40:21;;;;;;;9.68;7.22;;;281.60;2073.60;;;;;;5036367;28;20096;-71
2021/05/04 04:42:46;;;;;;;8.90;7.22;;;281.70;2099.20;;;;;;5037678;28;20048;-71
2021/05/04 04:45:12;;;;;;;10.45;7.25;;;281.80;2073.60;;;;;;5043979;28;20018;-71
2021/05/04 04:47:38;;;;;;;12.63;6.97;;;281.80;2073.60;;;;;;5047728;28;20056;-71
2021/05/04 04:50:04;;;;;;;8.43;6.70;;;281.90;2073.60;;;;;;5044013;28;20465;-71
2021/05/04 04:52:31;;;;;;;8.57;6.72;;;282.10;2073.60;;;;;;5039450;28;20056;-71
2021/05/04 04:54:57;;;;;;;10.82;7.43;;;;;;;;;;5045628;28;20032;-71
2021/05/04 04:57:23;;;;;;;12.98;6.97;;;;;;;;;;5044214;28;20083;-71
2021/05/04 04:59:49;;;;;;;9.50;6.75;;;;;;;;;;5040594;28;20502;-71
2021/05/04 05:02:18;;;;;;;10.55;6.97;;;;;;;;;;5039173;28;20032;-72
2021/05/04 05:04:45;;;;;;;8.35;6.13;;;;;;;;;;5044297;28;20078;-72
2021/05/04 05:07:11;;;;;;;10.48;6.72;;;;;;;;;;5045272;28;20060;-72
2021/05/04 05:09:37;;;;;;;8.85;6.82;;;;;;;;;;5040390;28;20036;-72
2021/05/04 05:12:05;;;;;;;8.70;6.45;;;;;;;;;;5036854;28;20044;-71
2021/05/04 05:14:33;;;;;;;12.50;6.45;;;;;;;;;;5039000;28;20080;-71
2021/05/04 05:16:59;;;;;;;10.07;6.40;;;;;;;;;;5039692;28;20540;-72
2021/05/04 05:19:25;;;;;;;10.50;6.18;;;;;;;;;;5035638;28;20106;-72
2021/05/04 05:21:51;;;;;;;9.32;6.40;;;;;;;;;;5038205;28;20025;-72
2021/05/04 05:24:18;;;;;;;8.43;6.60;;;;;;;;;;5038557;28;20053;-73
2021/05/04 05:26:44;;;;;;;9.55;6.32;;;;;;;;;;5044202;28;20017;-72
2021/05/04 05:29:10;;;;;;;10.43;6.28;;;;;;;;;;5043124;28;20026;-72
2021/05/04 05:31:37;;;;;;;9.68;6.07;;;;;;;;;;5047276;28;20030;-72
2021/05/04 05:34:03;;;;;;;12.05;6.75;;;;;;;;;;5039565;28;20026;-73
2021/05/04 05:36:30;;;;;;;8.05;6.05;;;;;;;;;;5041420;28;20467;-73
2021/05/04 05:38:56;;;;;;;8.50;5.80;;;;;;;;;;5039298;28;20483;-74
2021/05/04 05:41:22;;;;;;;11.82;6.20;;;;;;;;;;5043600;28;20039;-73
2021/05/04 05:43:51;;;;;;;10.25;6.22;;;;;;;;;;5042552;28;20517;-72
2021/05/04 05:46:17;;;;;;;8.68;5.50;;;;;;;;;;5039070;28;20071;-72
2021/05/04 05:48:43;;;;;;;12.20;6.00;;;;;;;;;;5045230;28;20458;-74
2021/05/04 05:51:10;;;;;;;7.20;5.63;;;;;;;;;;5039998;28;20518;-73
2021/05/04 05:53:36;;;;;;;11.13;6.25;;;;;;;;;;5046733;28;20406;-73
2021/05/04 05:56:02;;;;;;;7.97;5.50;;;;;;;;;;5044596;28;20082;-73
2021/05/04 05:58:28;;;;;;;11.38;5.88;;;;;;;;;;5040693;28;20074;-74
2021/05/04 06:00:56;;;;;;;10.90;5.70;;;;;;;;;;5039737;28;20487;-73
2021/05/04 06:03:22;;;;;;;10.07;5.68;;;;;;;;;;5040857;28;20021;-74
2021/05/04 06:05:49;;;;;;;8.07;5.85;;;;;;;;;;5042629;28;20022;-73
2021/05/04 06:08:17;;;;;;;10.73;6.20;;;;;;;;;;5046740;28;20060;-78
2021/05/04 06:10:43;;;;;;;9.38;5.60;;;;;;;;;;5049679;28;20020;-78
2021/05/04 06:13:12;;;;;;;10.05;5.78;;;;;;;;;;5065612;28;20033;-77
2021/05/04 06:15:43;;;;;;;10.50;5.43;;;;;;;;;;5063755;28;20021;-78
2021/05/04 06:18:10;;;;;;;6.88;4.97;;;;;;;;;;5052947;28;20029;-77
2021/05/04 06:20:36;;;;;;;10.02;5.15;;;;;;;;;;5054402;28;20466;-77
2021/05/04 06:23:02;;;;;;;8.32;5.63;;;;;;;;;;5047508;28;20026;-72
2021/05/04 06:25:28;;;;;;;10.70;5.63;;;;;;;;;;5041405;28;20025;-74
2021/05/04 06:27:58;;;;;;;15.02;5.95;;;;;;;;;;5048256;28;20160;-76
2021/05/04 06:30:26;;;;;;;7.38;5.07;;;;;;;;;;5041280;28;20056;-74
2021/05/04 06:32:53;;;;;;;9.10;5.72;;;;;;;;;;5048812;28;20021;-73
2021/05/04 06:35:28;;;;;;;10.00;5.75;;;;;;;;;;5040577;28;20022;-78
2021/05/04 06:37:54;;;;;;;8.70;5.50;;;;;;;;;;5039781;28;20033;-74
2021/05/04 06:40:20;;;;;;;18.92;6.22;;;;;;;;;;5038964;28;20050;-72
2021/05/04 06:42:46;;;;;;;9.38;6.28;;;;;;;;;;5051420;28;20048;-76
2021/05/04 06:45:12;;;;;;;9.55;6.97;;;;;;;;;;5049390;28;20026;-74
2021/05/04 06:47:38;;;;;;;9.82;5.90;;;;;;;;;;5039906;28;20043;-73
2021/05/04 06:50:05;;;;;;;9.60;6.20;;;;;;;;;;5027911;28;20037;-75
2021/05/04 06:52:31;;;;;;;14.65;6.60;;;;;;;;;;5043766;28;20529;-75
2021/05/04 06:54:58;;;;;;;9.60;6.05;;;;;;;;;;5023827;28;20021;-75
2021/05/04 06:57:24;;;;;;;19.02;7.05;;;;;;;;;;5042409;28;20033;-75
2021/05/04 06:59:51;;;;;;;14.13;6.38;;;;;;;;;;5036533;28;20024;-74
2021/05/04 07:02:17;;;;;;;9.90;6.18;;;;;;;;;;5040639;28;20021;-75
2021/05/04 07:04:44;;;;;;;13.55;6.35;;;;;;;;;;5037607;28;20117;-73
2021/05/04 07:07:10;;;;;;;13.30;6.38;;;;;;;;;;5037867;28;20021;-76
2021/05/04 07:09:36;;;;;;;14.38;6.28;;;;;;;;;;5044751;28;20048;-73
2021/05/04 07:12:03;;;;;;;8.60;6.03;;;;;;;;;;5042766;28;20041;-73
2021/05/04 07:14:31;;;;;;;11.43;6.03;;;;;;;;;;5037065;28;20487;-76
2021/05/04 07:17:00;;;;;;;11.25;6.38;;;;;;;;;;5034565;28;20029;-76
2021/05/04 07:19:26;;;;;;;10.02;6.57;;;;;;;;;;5035073;28;20036;-74
2021/05/04 07:21:52;;;;;;;10.68;6.63;;;;;;;;;;5023218;28;20041;-75
2021/05/04 07:24:18;;;;;;;11.88;6.53;;;;;;;;;;5037493;28;20104;-74
2021/05/04 07:26:44;;;;;;;10.65;5.95;;;;;;;;;;5033913;28;20032;-70
2021/05/04 07:29:10;;;;;;;14.77;5.82;;;;;;;;;;5034765;28;20479;-72
2021/05/04 07:31:37;;;;;;;12.15;5.63;;;;;;;;;;5036315;28;20036;-72
2021/05/04 07:34:03;;;;;;;10.30;5.82;;;;;;;;;;5041282;28;20083;-71
2021/05/04 07:36:30;;;;;;;14.55;6.75;;;;;;;;;;5040408;28;20033;-75
2021/05/04 07:39:00;;;;;;;12.77;6.13;;;;;;;;;;5040822;28;20119;-71
2021/05/04 07:41:26;;;;;;;10.95;6.00;;;;;;;;;;5037560;28;20043;-71
2021/05/04 07:43:52;;;;;;;13.27;5.82;;;;;;;;;;5042581;28;20478;-70
2021/05/04 07:46:18;;;;;;;7.55;4.93;;;;;;;;;;5035504;28;20467;-73
2021/05/04 07:48:44;;;;;;;8.43;5.28;;;;;;;;;;5020496;28;20062;-72
2021/05/04 07:51:10;;;;;;;9.15;5.90;;;;;;;;;;5034330;28;20032;-73
2021/05/04 07:53:36;;;;;;;8.75;6.03;;;;;;;;;;5038964;28;20044;-70
2021/05/04 07:56:05;;;;;;;12.25;5.80;;;;;;;;;;5034643;28;20025;-71
2021/05/04 07:58:31;;;;;;;10.30;5.60;;;;;;;;;;5038887;28;20072;-73
2021/05/04 08:00:57;;;;;;;11.07;5.53;;;;;;;;;;5039089;28;20463;-74
2021/05/04 08:03:24;;;;;;;26.60;6.63;;;;;;;;;;5046242;28;20036;-74
2021/05/04 08:05:50;;;;;;;10.73;5.47;;;;;;;;;;5042119;28;20053;-74
2021/05/04 08:08:17;;;;;;;10.43;5.97;;;;;;;;;;5043041;28;20032;-74
2021/05/04 08:10:43;;;;;;;8.88;5.22;;;;;;;;;;5047407;28;20029;-73
2021/05/04 08:13:09;;;;;;;10.18;5.20;;;;;;;;;;5021779;28;20078;-74
2021/05/04 08:15:36;;;;;;;8.30;5.22;;;;;;;;;;5038575;28;20441;-74
2021/05/04 08:18:08;;;;;;;6.32;4.63;;;;;;;;;;5042873;28;20048;-74
2021/05/04 08:20:36;;;;;;;12.80;5.40;;;;;;;;;;5032061;28;20021;-74
2021/05/04 08:23:03;;;;;;;7.78;5.35;;;;;;;;;;5037516;28;20021;-74
2021/05/04 08:25:29;;;;;;;14.48;5.55;;;;;;;;;;5039855;28;20021;-74
2021/05/04 08:27:55;;;;;;;12.60;5.40;;;;;;;;;;5040899;28;20034;-73
2021/05/04 08:30:22;;;;;;;7.65;4.82;;;;;;;;;;5034772;28;20482;-75
2021/05/04 08:32:49;;;;;;;11.40;5.35;;;;;;;;;;5039200;28;20029;-74
2021/05/04 08:35:15;;;;;;;8.88;4.97;;;;;;;;;;5043363;28;20033;-75
2021/05/04 08:37:42;;;;;;;11.18;5.18;;;;;;;;;;5045697;28;20048;-74
2021/05/04 08:40:08;;;;;;;10.63;5.53;;;;;;;;;;5050020;28;20039;-75
2021/05/04 08:42:35;;;;;;;8.75;4.95;;;;;;;;;;5047596;28;20036;-75
2021/05/04 08:45:03;;;;;;;7.20;4.95;;;;;;;;;;5043356;28;20029;-74
2021/05/04 08:47:29;;;;;;;8.23;4.40;;;;;;;;;;5047590;28;20021;-74
2021/05/04 08:49:56;;;;;;;16.25;5.50;;;;;;;;;;5041161;28;20457;-74
2021/05/04 08:52:22;;;;;;;15.25;5.10;;;;;;;;;;5045224;28;20057;-75
2021/05/04 08:54:48;;;;;;;13.75;4.88;;;;;;;;;;5045430;28;20672;-74
2021/05/04 08:57:14;;;;;;;8.95;4.82;;;;;;;;;;5044445;28;20021;-70
2021/05/04 08:59:40;;;;;;;13.65;5.00;;;;;;;;;;5039117;28;20460;-74
2021/05/04 09:02:06;;;;;;;7.28;5.13;;;;;;;;;;5044242;28;20021;-75
2021/05/04 09:07:36;;;;;;;8.93;5.45;;;;;;;;;;5040205;28;20028;-74
2021/05/04 09:18:22;;;;;;;10.52;5.13;;;;;;;;;;4969122;28;20050;-73
2021/05/04 09:21:06;;;;;;;12.38;5.20;;;;;;;;;;4971443;28;20054;-70
2021/05/04 09:23:32;;;;;;;12.20;5.63;;;;;;;;;;4966165;28;20586;-74
2021/05/04 09:25:59;;;;;;;21.10;6.70;;;;;;;;;;4964654;28;20043;-73
2021/05/04 09:28:25;;;;;;;41.10;7.40;;;;;;;;;;4969611;28;20110;-74
2021/05/04 09:30:56;;;;;;;11.93;6.05;;;;;;;;;;4966042;28;20503;-75
2021/05/04 09:33:22;;;;;;;13.98;5.72;;;;;;;;;;4968608;28;20532;-75
2021/05/04 09:35:48;;;;;;;13.82;5.35;;;;;;;;;;4966422;28;21465;-76
2021/05/04 09:38:15;;;;;;;10.35;5.70;;;;;;;;;;4965922;28;20051;-71
2021/05/04 09:40:45;;;;;;;9.77;5.22;;;;;;;;;;4972502;28;20031;-75
2021/05/04 09:43:12;;;;;;;12.27;5.53;;;;;;;;;;4965596;28;20035;-75
2021/05/04 09:45:48;;;;;;;20.27;6.43;;;;;;;;;;5010539;28;20452;-75
2021/05/04 09:48:20;;;;;;;12.02;5.00;;;;;;;;;;5047567;28;20032;-76
2021/05/04 09:50:53;;;;;;;7.50;4.80;;;;;;;;;;5042657;28;20022;-75
2021/05/04 09:53:47;;;;;;;9.73;5.07;;;;;;;;;;5039928;28;20053;-75
2021/05/04 09:56:15;;;;;;;10.75;5.07;;;;;;;;;;5048681;28;20116;-75
2021/05/04 09:58:45;;;;;;;12.85;4.63;;;;;;;;;;5025899;28;20068;-75
2021/05/04 10:01:16;;;;;;;8.60;4.13;;;;;;;;;;5046751;28;20025;-74
2021/05/04 10:03:43;;;;;;;11.93;3.92;;;;;;;;;;5042445;28;20029;-74
2021/05/04 10:06:10;;;;;;;19.60;4.30;;;;;;;;;;5039269;28;20021;-75
2021/05/04 10:08:37;;;;;;;6.47;3.78;;;;;;;;;;5050031;28;20502;-74
2021/05/04 10:11:10;;;;;;;5.70;3.78;;;;;;;;;;5043443;28;20021;-76
2021/05/04 10:13:37;;;;;;;7.18;3.85;;;;;;;;;;5040381;28;20383;-73
2021/05/04 10:16:04;;;;;;;9.85;3.85;;;;;;;;;;5043292;28;20021;-75
2021/05/04 10:18:30;;;;;;;12.23;4.07;;;;;;;;;;5040624;28;20034;-75
2021/05/04 10:21:00;;;;;;;12.75;3.60;;;;;;;;;;5053020;28;20124;-70
2021/05/04 10:23:27;;;;;;;6.93;3.05;;;;;;;;;;5042148;28;20079;-71
2021/05/04 10:25:57;;;;;;;8.40;3.40;;;;;;;;;;5038851;28;20101;-74
2021/05/04 10:28:28;;;;;;;11.10;3.38;;;;;;;;;;5041008;28;20030;-74
2021/05/04 10:30:58;;;;;;;7.15;3.00;;;;;;;;;;5033876;28;20025;-73
2021/05/04 10:33:32;;;;;;;9.43;3.38;;;;;;;;;;5043518;28;20067;-70
2021/05/04 10:36:00;;;;;;;7.85;4.10;;;;;;;;;;5042002;28;20268;-71
2021/05/04 10:38:26;;;;;;;7.50;3.10;;;;;;;;;;5039015;28;20048;-71
2021/05/04 10:41:00;;;;;;;5.97;3.30;;;;;;;;;;5040299;28;20048;-72
2021/05/04 10:43:26;;;;;;;7.57;3.00;;;;;;;;;;5039829;28;20029;-68
2021/05/04 10:45:54;;;;;;;8.68;3.08;;;;;;;;;;5036893;28;20536;-81
2021/05/04 10:48:42;;;;;;;5.85;3.10;;;;;;;;;;5043092;28;20037;-78
2021/05/04 10:51:19;;;;;;;23.92;4.30;;;;;;;;;;5053620;28;20043;-81
2021/05/04 10:54:01;;;;;;;9.15;3.55;;;;;;;;;;5046343;28;20550;-80
2021/05/04 10:56:40;;;;;;;5.20;3.13;;;;;;;;;;5052637;28;20025;-76
2021/05/04 10:59:08;;;;;;;5.60;3.22;;;;;;;;;;5049602;28;21224;-73
2021/05/04 11:01:35;;;;;;;23.48;4.57;;;;;;;;;;5040635;28;20624;-72
2021/05/04 11:04:02;;;;;;;9.95;3.53;;;;;;;;;;5045057;28;20025;-73
2021/05/04 11:06:29;;;;;;;7.38;3.15;;;;;;;;;;5010122;28;20092;-73
2021/05/04 11:08:57;;;;;;;6.30;3.00;;;;;;;;;;5046973;28;20617;-73
2021/05/04 11:14:04;;;;;;;7.18;3.47;;;;;;;;;;5044499;28;20029;-73
2021/05/04 11:16:41;;;;;;;13.02;3.50;;;;;;;;;;5045693;28;20018;-73
2021/05/04 11:19:09;;;;;;;7.28;3.40;;;;;;;;;;5027753;28;20033;-73
2021/05/04 11:21:41;;;;;;;9.30;3.75;;;;;;;;;;5045655;28;20025;-72
2021/05/04 11:24:13;;;;;;;9.52;3.50;;;;;;;;;;5036703;28;20032;-85
2021/05/04 11:27:06;;;;;;;8.25;3.70;;;;;;;;;;5044480;28;20505;-70
2021/05/04 11:29:32;;;;;;;11.00;3.72;;;;;;;;;;5007218;28;20044;-73
2021/05/04 11:32:13;;;;;;;5.25;3.60;;;;;;;;;;5043879;28;20040;-75
2021/05/04 11:34:40;;;;;;;7.05;4.40;;;;;;;;;;5020642;28;20039;-78
2021/05/04 11:37:12;;;;;;;15.32;4.80;;;;;;;;;;5034090;28;20022;-77
2021/05/04 11:39:59;;;;;;;7.55;3.80;;;;;;;;;;5039799;28;20481;-79
2021/05/04 11:42:42;;;;;;;12.07;4.38;;;;;;;;;;5035503;28;20022;-73
2021/05/04 11:45:24;;;;;;;8.88;3.50;;;;;;;;;;5032082;28;20308;-74
2021/05/04 11:47:50;;;;;;;8.20;4.82;;;;;;;;;;5036071;28;20422;-75
2021/05/04 11:50:18;;;;;;;6.28;4.07;;;;;;;;;;5036520;28;20073;-75
2021/05/04 11:52:45;;;;;;;8.50;3.90;;;;;;;;;;5035284;28;20080;-75
2021/05/04 11:55:14;;;;;;;10.32;3.95;;;;;;;;;;5019613;28;20029;-76
2021/05/04 11:57:41;;;;;;;6.72;3.65;;;;;;;;;;5037131;28;20033;-75
2021/05/04 12:00:09;;;;;;;5.40;3.50;;;;;;;;;;5035641;28;20048;-76
2021/05/04 12:02:36;;;;;;;8.13;3.65;;;;;;;;;;5031877;28;20026;-85
2021/05/04 12:05:02;;;;;;;11.48;4.13;;;;;;;;;;5032864;28;20116;-78
2021/05/04 12:07:36;;;;;;;8.10;3.58;;;;;;;;;;5031888;28;20044;-81
2021/05/04 12:10:19;;;;;;;6.32;3.40;;;;;;;;;;5036637;28;20593;-77
2021/05/04 12:12:45;;;;;;;11.43;3.90;;;;;;;;;;5033860;28;20049;-78
2021/05/04 12:15:15;;;;;;;5.95;3.30;;;;;;;;;;5042048;28;20274;-81
2021/05/04 12:17:41;;;;;;;5.47;3.05;;;;;;;;;;5022069;28;20537;-82
2021/05/04 12:20:15;;;;;;;7.13;4.07;;;;;;;;;;5033813;28;20028;-80
2021/05/04 12:22:41;;;;;;;;;;;;;;;;;;5034471;28;20522;-74
2021/05/04 12:25:07;;;;;;;6.55;3.45;;;;;;;;;;5034138;28;19984;-73
2021/05/04 12:27:33;;;;;;;5.93;4.00;;;;;;;;;;5033135;28;20390;-74
2021/05/04 12:29:59;;;;;;;6.18;3.78;;;;;;;;;;5037227;28;20037;-71
2021/05/04 12:32:25;;;;;;;7.55;3.80;;;;;;;;;;5022535;28;20428;-71
2021/05/04 12:34:51;;;;;;;8.20;3.88;;;;;;;;;;5032859;28;20091;-75
2021/05/04 12:37:17;;;;;;;14.23;4.30;;;;;;;;;;5036275;28;20036;-74
2021/05/04 12:39:44;;;;;;;5.97;3.97;;;;;;;;;;5038889;28;20021;-71
2021/05/04 12:42:20;;;;;;;13.68;4.20;;;;;;;;;;5040889;28;20687;-87
2021/05/04 12:44:46;;;;;;;8.13;3.90;;;;;;;;;;5024946;28;20403;-77
2021/05/04 12:47:16;;;;;;;7.30;3.60;;;;;;;;;;5043115;28;20107;-75
2021/05/04 12:49:43;;;;;;;8.20;3.50;;;;;;;;;;5045421;28;20497;-76
2021/05/04 12:52:10;;;;;;;7.45;3.55;;;;;;;;;;5046873;28;20510;-74
2021/05/04 12:54:37;;;;;;;8.20;4.10;;;;;;;;;;5023840;28;20364;-72
2021/05/04 12:57:23;;;;;;;5.38;3.58;;;;;;;;;;5041764;28;20033;-73
2021/05/04 12:59:49;;;;;;;6.03;3.78;;;;;;;;;;5038200;28;20033;-72
2021/05/04 13:02:22;;;;;;;4.90;3.20;;;;;;;;;;5042566;28;20025;-73
2021/05/04 13:05:01;;;;;;;;;;;;;;;;;;5039621;28;20040;-71
2021/05/04 13:12:41;;;;;;;4.82;3.15;;;;;;;;;;5042806;28;20067;-71
2021/05/04 13:31:34;;;;;;;4.50;3.10;;;;;;;;;;5046843;28;20037;-74
2021/05/04 13:34:00;;;;;;;4.43;3.00;;;;;;;;;;5043630;28;20468;-73
2021/05/04 13:36:26;;;;;;;7.00;2.95;;;;;;;;;;5040970;28;20037;-73
2021/05/04 13:39:19;;;;;;;16.73;3.13;;;;;;;;;;5039759;28;20038;-76
2021/05/04 13:47:28;;;;;;;5.20;2.95;;;;;;;;;;5040669;28;20091;-76
2021/05/04 13:47:31;;;;;;;18.90;3.83;;;;;;;;;;5039110;28;20025;-75
2021/05/04 13:49:58;;;;;;;10.20;3.08;;;;;;;;;;5035785;28;20048;-77
2021/05/04 13:52:24;;;;;;;8.00;3.05;;;;;;;;;;5040068;28;20045;-76
2021/05/04 13:54:50;;;;;;;4.93;2.85;;;;;;;;;;5042100;28;20433;-73
2021/05/04 13:57:17;;;;;;;5.97;3.13;;;;;;;;;;5036544;28;20034;-73
2021/05/04 13:59:43;;;;;;;8.70;3.00;;;;;;;;;;5046314;28;20029;-72
2021/05/04 14:07:53;;;;;;;8.50;3.42;;;;;;;;;;4973602;28;20066;-71
2021/05/04 14:26:38;;;;;;;9.23;3.85;;;;;;;;;;4934176;29;20083;-75
2021/05/04 14:29:05;;;;;;;9.90;3.50;;;;;;;;;;4932620;29;20039;-75
2021/05/04 14:31:31;;;;;;;9.20;3.58;;;;;;;;;;4932461;29;20036;-74
2021/05/04 14:33:57;;;;;;;7.72;3.47;;;;;;;;;;4930242;29;20067;-75
2021/05/04 14:47:22;;;;;;;9.38;4.32;;;;;;;;;;4875307;29;20037;-76
2021/05/04 14:55:38;;;;;;;6.50;3.00;;;;;;;;;;4938455;29;20039;-75
2021/05/04 15:00:53;;;;;;;4.28;3.35;;;;;;;;;;4937837;29;20034;-73
2021/05/04 15:03:19;;;;;;;5.80;3.30;;;;;;;;;;4939994;29;20039;-75